sensor_id;sensor_type;location;lat;lon;timestamp;P1;durP1;ratioP1;P2;durP2;ratioP2
40533;SDS011;26233;51.894;10.192;2023-03-14T00:01:08;1.30;;;1.20;;
40533;SDS011;26233;51.894;10.192;2023-03-14T00:03:37;1.50;;;1.40;;
40533;SDS011;26233;51.894;10.192;2023-03-14T00:06:05;1.45;;;1.17;;
40533;SDS011;26233;51.894;10.192;2023-03-14T00:08:33;1.30;;;1.20;;
40533;SDS011;26233;51.894;10.192;2023-03-14T00:11:03;1.48;;;1.38;;
40533;SDS011;26233;51.894;10.192;2023-03-14T00:13:32;1.98;;;1.50;;
40533;SDS011;26233;51.894;10.192;2023-03-14T00:16:04;1.52;;;1.20;;
40533;SDS011;26233;51.894;10.192;2023-03-14T00:18:33;1.10;;;1.00;;
40533;SDS011;26233;51.894;10.192;2023-03-14T00:21:01;1.30;;;1.20;;
40533;SDS011;26233;51.894;10.192;2023-03-14T00:23:29;1.35;;;1.25;;
40533;SDS011;26233;51.894;10.192;2023-03-14T00:25:59;1.40;;;1.30;;
40533;SDS011;26233;51.894;10.192;2023-03-14T00:28:26;1.30;;;1.17;;
40533;SDS011;26233;51.894;10.192;2023-03-14T00:30:56;1.20;;;1.10;;
40533;SDS011;26233;51.894;10.192;2023-03-14T00:33:25;1.17;;;1.08;;
40533;SDS011;26233;51.894;10.192;2023-03-14T00:35:53;0.98;;;0.88;;
40533;SDS011;26233;51.894;10.192;2023-03-14T00:38:21;1.33;;;1.23;;
40533;SDS011;26233;51.894;10.192;2023-03-14T00:40:49;1.40;;;1.30;;
40533;SDS011;26233;51.894;10.192;2023-03-14T00:43:16;1.40;;;1.27;;
40533;SDS011;26233;51.894;10.192;2023-03-14T00:45:46;2.00;;;1.80;;
40533;SDS011;26233;51.894;10.192;2023-03-14T00:48:13;1.42;;;1.30;;
40533;SDS011;26233;51.894;10.192;2023-03-14T00:50:42;1.58;;;1.33;;
40533;SDS011;26233;51.894;10.192;2023-03-14T00:53:09;1.23;;;1.13;;
40533;SDS011;26233;51.894;10.192;2023-03-14T00:55:36;1.40;;;0.93;;
40533;SDS011;26233;51.894;10.192;2023-03-14T00:58:04;2.38;;;1.20;;
40533;SDS011;26233;51.894;10.192;2023-03-14T01:00:32;1.85;;;1.10;;
40533;SDS011;26233;51.894;10.192;2023-03-14T01:02:59;1.20;;;1.10;;
40533;SDS011;26233;51.894;10.192;2023-03-14T01:05:26;1.10;;;1.00;;
40533;SDS011;26233;51.894;10.192;2023-03-14T01:07:55;1.40;;;1.20;;
40533;SDS011;26233;51.894;10.192;2023-03-14T01:10:22;2.13;;;1.33;;
40533;SDS011;26233;51.894;10.192;2023-03-14T01:12:49;1.50;;;1.40;;
40533;SDS011;26233;51.894;10.192;2023-03-14T01:15:16;1.75;;;1.30;;
40533;SDS011;26233;51.894;10.192;2023-03-14T01:17:44;1.20;;;1.10;;
40533;SDS011;26233;51.894;10.192;2023-03-14T01:20:12;1.70;;;1.10;;
40533;SDS011;26233;51.894;10.192;2023-03-14T01:22:41;1.02;;;1.00;;
40533;SDS011;26233;51.894;10.192;2023-03-14T01:25:11;1.88;;;1.30;;
40533;SDS011;26233;51.894;10.192;2023-03-14T01:27:41;1.20;;;1.10;;
40533;SDS011;26233;51.894;10.192;2023-03-14T01:30:09;1.48;;;0.98;;
40533;SDS011;26233;51.894;10.192;2023-03-14T01:32:37;1.13;;;1.00;;
40533;SDS011;26233;51.894;10.192;2023-03-14T01:35:05;1.00;;;0.90;;
40533;SDS011;26233;51.894;10.192;2023-03-14T01:37:33;1.10;;;1.00;;
40533;SDS011;26233;51.894;10.192;2023-03-14T01:40:00;1.23;;;1.00;;
40533;SDS011;26233;51.894;10.192;2023-03-14T01:42:30;1.45;;;1.08;;
40533;SDS011;26233;51.894;10.192;2023-03-14T01:44:57;1.80;;;1.20;;
40533;SDS011;26233;51.894;10.192;2023-03-14T01:47:27;1.13;;;0.90;;
40533;SDS011;26233;51.894;10.192;2023-03-14T01:49:56;1.33;;;0.90;;
40533;SDS011;26233;51.894;10.192;2023-03-14T01:52:28;1.27;;;1.00;;
40533;SDS011;26233;51.894;10.192;2023-03-14T01:55:01;1.75;;;1.13;;
40533;SDS011;26233;51.894;10.192;2023-03-14T01:57:35;1.13;;;1.00;;
40533;SDS011;26233;51.894;10.192;2023-03-14T02:00:06;1.60;;;0.95;;
40533;SDS011;26233;51.894;10.192;2023-03-14T02:02:39;2.25;;;0.90;;
40533;SDS011;26233;51.894;10.192;2023-03-14T02:05:10;1.45;;;1.00;;
40533;SDS011;26233;51.894;10.192;2023-03-14T02:07:41;1.88;;;0.90;;
40533;SDS011;26233;51.894;10.192;2023-03-14T02:10:15;1.90;;;1.10;;
40533;SDS011;26233;51.894;10.192;2023-03-14T02:12:46;0.98;;;0.80;;
40533;SDS011;26233;51.894;10.192;2023-03-14T02:15:14;1.60;;;1.00;;
40533;SDS011;26233;51.894;10.192;2023-03-14T02:17:42;1.25;;;1.00;;
40533;SDS011;26233;51.894;10.192;2023-03-14T02:20:13;1.58;;;1.00;;
40533;SDS011;26233;51.894;10.192;2023-03-14T02:22:53;2.60;;;0.93;;
40533;SDS011;26233;51.894;10.192;2023-03-14T02:25:22;1.73;;;0.95;;
40533;SDS011;26233;51.894;10.192;2023-03-14T02:27:59;2.05;;;0.85;;
40533;SDS011;26233;51.894;10.192;2023-03-14T02:30:28;1.10;;;1.00;;
40533;SDS011;26233;51.894;10.192;2023-03-14T02:32:58;1.08;;;0.90;;
40533;SDS011;26233;51.894;10.192;2023-03-14T02:35:31;1.65;;;0.80;;
40533;SDS011;26233;51.894;10.192;2023-03-14T02:38:10;1.75;;;1.10;;
40533;SDS011;26233;51.894;10.192;2023-03-14T02:40:46;1.48;;;0.93;;
40533;SDS011;26233;51.894;10.192;2023-03-14T02:43:17;1.85;;;1.10;;
40533;SDS011;26233;51.894;10.192;2023-03-14T02:45:45;3.35;;;1.17;;
40533;SDS011;26233;51.894;10.192;2023-03-14T02:48:15;1.90;;;1.08;;
40533;SDS011;26233;51.894;10.192;2023-03-14T02:50:45;1.02;;;0.93;;
40533;SDS011;26233;51.894;10.192;2023-03-14T02:53:16;1.77;;;0.90;;
40533;SDS011;26233;51.894;10.192;2023-03-14T02:55:49;1.25;;;0.90;;
40533;SDS011;26233;51.894;10.192;2023-03-14T02:58:18;1.38;;;1.02;;
40533;SDS011;26233;51.894;10.192;2023-03-14T03:00:46;1.83;;;0.95;;
40533;SDS011;26233;51.894;10.192;2023-03-14T03:03:13;1.65;;;1.10;;
40533;SDS011;26233;51.894;10.192;2023-03-14T03:05:40;1.38;;;1.10;;
40533;SDS011;26233;51.894;10.192;2023-03-14T03:08:09;2.13;;;1.13;;
40533;SDS011;26233;51.894;10.192;2023-03-14T03:10:36;1.83;;;1.30;;
40533;SDS011;26233;51.894;10.192;2023-03-14T03:13:03;1.42;;;1.15;;
40533;SDS011;26233;51.894;10.192;2023-03-14T03:15:32;1.70;;;1.20;;
40533;SDS011;26233;51.894;10.192;2023-03-14T03:18:01;1.27;;;1.17;;
40533;SDS011;26233;51.894;10.192;2023-03-14T03:20:28;1.67;;;1.15;;
40533;SDS011;26233;51.894;10.192;2023-03-14T03:22:57;1.20;;;1.10;;
40533;SDS011;26233;51.894;10.192;2023-03-14T03:25:26;1.30;;;1.08;;
40533;SDS011;26233;51.894;10.192;2023-03-14T03:27:54;1.52;;;1.20;;
40533;SDS011;26233;51.894;10.192;2023-03-14T03:30:21;2.08;;;1.23;;
40533;SDS011;26233;51.894;10.192;2023-03-14T03:32:49;1.17;;;1.00;;
40533;SDS011;26233;51.894;10.192;2023-03-14T03:35:16;1.83;;;1.20;;
40533;SDS011;26233;51.894;10.192;2023-03-14T03:37:43;1.90;;;1.65;;
40533;SDS011;26233;51.894;10.192;2023-03-14T03:40:10;1.67;;;1.33;;
40533;SDS011;26233;51.894;10.192;2023-03-14T03:42:38;1.30;;;1.20;;
40533;SDS011;26233;51.894;10.192;2023-03-14T03:45:06;1.58;;;1.10;;
40533;SDS011;26233;51.894;10.192;2023-03-14T03:47:34;2.22;;;1.40;;
40533;SDS011;26233;51.894;10.192;2023-03-14T03:50:03;1.48;;;1.20;;
40533;SDS011;26233;51.894;10.192;2023-03-14T03:52:31;1.58;;;1.30;;
40533;SDS011;26233;51.894;10.192;2023-03-14T03:54:58;2.08;;;1.60;;
40533;SDS011;26233;51.894;10.192;2023-03-14T03:57:25;1.95;;;1.45;;
40533;SDS011;26233;51.894;10.192;2023-03-14T03:59:52;1.20;;;1.10;;
40533;SDS011;26233;51.894;10.192;2023-03-14T04:02:19;1.52;;;1.20;;
40533;SDS011;26233;51.894;10.192;2023-03-14T04:04:46;1.83;;;1.33;;
40533;SDS011;26233;51.894;10.192;2023-03-14T04:07:14;1.30;;;1.20;;
40533;SDS011;26233;51.894;10.192;2023-03-14T04:09:43;1.88;;;1.45;;
40533;SDS011;26233;51.894;10.192;2023-03-14T04:12:10;2.45;;;1.30;;
40533;SDS011;26233;51.894;10.192;2023-03-14T04:14:38;2.70;;;1.35;;
40533;SDS011;26233;51.894;10.192;2023-03-14T04:17:06;1.40;;;1.30;;
40533;SDS011;26233;51.894;10.192;2023-03-14T04:19:33;2.72;;;1.40;;
40533;SDS011;26233;51.894;10.192;2023-03-14T04:22:00;2.25;;;1.42;;
40533;SDS011;26233;51.894;10.192;2023-03-14T04:24:28;2.08;;;1.10;;
40533;SDS011;26233;51.894;10.192;2023-03-14T04:26:56;3.85;;;1.30;;
40533;SDS011;26233;51.894;10.192;2023-03-14T04:29:25;2.75;;;1.20;;
40533;SDS011;26233;51.894;10.192;2023-03-14T04:31:52;2.38;;;1.23;;
40533;SDS011;26233;51.894;10.192;2023-03-14T04:34:19;1.75;;;1.10;;
40533;SDS011;26233;51.894;10.192;2023-03-14T04:36:46;1.60;;;1.13;;
40533;SDS011;26233;51.894;10.192;2023-03-14T04:39:13;3.45;;;1.40;;
40533;SDS011;26233;51.894;10.192;2023-03-14T04:41:42;1.67;;;1.40;;
40533;SDS011;26233;51.894;10.192;2023-03-14T04:44:10;2.40;;;1.27;;
40533;SDS011;26233;51.894;10.192;2023-03-14T04:46:40;3.65;;;1.50;;
40533;SDS011;26233;51.894;10.192;2023-03-14T04:49:07;1.50;;;1.25;;
40533;SDS011;26233;51.894;10.192;2023-03-14T04:51:34;1.52;;;1.30;;
40533;SDS011;26233;51.894;10.192;2023-03-14T04:54:01;2.22;;;1.40;;
40533;SDS011;26233;51.894;10.192;2023-03-14T04:56:28;1.45;;;1.15;;
40533;SDS011;26233;51.894;10.192;2023-03-14T04:58:57;1.48;;;1.30;;
40533;SDS011;26233;51.894;10.192;2023-03-14T05:01:24;1.90;;;1.35;;
40533;SDS011;26233;51.894;10.192;2023-03-14T05:03:51;1.58;;;1.23;;
40533;SDS011;26233;51.894;10.192;2023-03-14T05:06:18;1.90;;;1.20;;
40533;SDS011;26233;51.894;10.192;2023-03-14T05:08:45;1.50;;;1.17;;
40533;SDS011;26233;51.894;10.192;2023-03-14T05:11:12;2.90;;;1.20;;
40533;SDS011;26233;51.894;10.192;2023-03-14T05:13:41;1.58;;;1.00;;
40533;SDS011;26233;51.894;10.192;2023-03-14T05:16:10;1.83;;;1.02;;
40533;SDS011;26233;51.894;10.192;2023-03-14T05:18:37;1.38;;;1.10;;
40533;SDS011;26233;51.894;10.192;2023-03-14T05:21:04;1.33;;;0.88;;
40533;SDS011;26233;51.894;10.192;2023-03-14T05:23:32;0.80;;;0.80;;
40533;SDS011;26233;51.894;10.192;2023-03-14T05:25:59;0.68;;;0.68;;
40533;SDS011;26233;51.894;10.192;2023-03-14T05:28:26;1.77;;;0.90;;
40533;SDS011;26233;51.894;10.192;2023-03-14T05:30:53;0.95;;;0.70;;
40533;SDS011;26233;51.894;10.192;2023-03-14T05:33:22;0.82;;;0.60;;
40533;SDS011;26233;51.894;10.192;2023-03-14T05:35:49;1.10;;;0.50;;
40533;SDS011;26233;51.894;10.192;2023-03-14T05:38:16;0.90;;;0.70;;
40533;SDS011;26233;51.894;10.192;2023-03-14T05:40:44;0.45;;;0.45;;
40533;SDS011;26233;51.894;10.192;2023-03-14T05:43:12;0.40;;;0.40;;
40533;SDS011;26233;51.894;10.192;2023-03-14T05:45:40;0.60;;;0.60;;
40533;SDS011;26233;51.894;10.192;2023-03-14T05:48:08;0.77;;;0.50;;
40533;SDS011;26233;51.894;10.192;2023-03-14T05:50:36;0.50;;;0.50;;
40533;SDS011;26233;51.894;10.192;2023-03-14T05:53:03;0.43;;;0.43;;
40533;SDS011;26233;51.894;10.192;2023-03-14T05:55:30;0.50;;;0.50;;
40533;SDS011;26233;51.894;10.192;2023-03-14T05:57:58;0.88;;;0.70;;
40533;SDS011;26233;51.894;10.192;2023-03-14T06:00:25;0.77;;;0.70;;
40533;SDS011;26233;51.894;10.192;2023-03-14T06:02:52;0.52;;;0.52;;
40533;SDS011;26233;51.894;10.192;2023-03-14T06:05:19;0.60;;;0.60;;
40533;SDS011;26233;51.894;10.192;2023-03-14T06:07:48;0.80;;;0.60;;
40533;SDS011;26233;51.894;10.192;2023-03-14T06:10:15;1.45;;;0.70;;
40533;SDS011;26233;51.894;10.192;2023-03-14T06:12:42;0.70;;;0.70;;
40533;SDS011;26233;51.894;10.192;2023-03-14T06:15:10;0.80;;;0.60;;
40533;SDS011;26233;51.894;10.192;2023-03-14T06:17:37;1.23;;;0.73;;
40533;SDS011;26233;51.894;10.192;2023-03-14T06:20:04;0.95;;;0.60;;
40533;SDS011;26233;51.894;10.192;2023-03-14T06:22:34;1.25;;;0.80;;
40533;SDS011;26233;51.894;10.192;2023-03-14T06:25:03;0.85;;;0.70;;
40533;SDS011;26233;51.894;10.192;2023-03-14T06:27:34;0.60;;;0.60;;
40533;SDS011;26233;51.894;10.192;2023-03-14T06:30:01;0.70;;;0.70;;
40533;SDS011;26233;51.894;10.192;2023-03-14T06:32:28;1.05;;;0.60;;
40533;SDS011;26233;51.894;10.192;2023-03-14T06:34:55;0.98;;;0.70;;
40533;SDS011;26233;51.894;10.192;2023-03-14T06:37:26;2.22;;;1.00;;
40533;SDS011;26233;51.894;10.192;2023-03-14T06:39:56;1.30;;;1.00;;
40533;SDS011;26233;51.894;10.192;2023-03-14T06:42:24;0.77;;;0.75;;
40533;SDS011;26233;51.894;10.192;2023-03-14T06:44:51;1.55;;;1.05;;
40533;SDS011;26233;51.894;10.192;2023-03-14T06:47:19;2.80;;;1.05;;
40533;SDS011;26233;51.894;10.192;2023-03-14T06:49:46;1.55;;;1.20;;
40533;SDS011;26233;51.894;10.192;2023-03-14T06:52:14;1.40;;;1.10;;
40533;SDS011;26233;51.894;10.192;2023-03-14T06:54:42;1.92;;;1.30;;
40533;SDS011;26233;51.894;10.192;2023-03-14T06:57:09;2.70;;;1.42;;
40533;SDS011;26233;51.894;10.192;2023-03-14T06:59:37;1.75;;;1.27;;
40533;SDS011;26233;51.894;10.192;2023-03-14T07:02:04;2.25;;;1.48;;
40533;SDS011;26233;51.894;10.192;2023-03-14T07:04:34;2.40;;;1.33;;
40533;SDS011;26233;51.894;10.192;2023-03-14T07:07:01;3.10;;;1.38;;
40533;SDS011;26233;51.894;10.192;2023-03-14T07:09:30;3.05;;;1.63;;
40533;SDS011;26233;51.894;10.192;2023-03-14T07:11:57;2.42;;;1.48;;
40533;SDS011;26233;51.894;10.192;2023-03-14T07:14:24;3.15;;;1.95;;
40533;SDS011;26233;51.894;10.192;2023-03-14T07:16:52;1.92;;;1.50;;
40533;SDS011;26233;51.894;10.192;2023-03-14T07:19:19;1.63;;;1.52;;
40533;SDS011;26233;51.894;10.192;2023-03-14T07:21:46;2.92;;;1.50;;
40533;SDS011;26233;51.894;10.192;2023-03-14T07:24:13;3.58;;;1.55;;
40533;SDS011;26233;51.894;10.192;2023-03-14T07:26:40;4.60;;;1.30;;
40533;SDS011;26233;51.894;10.192;2023-03-14T07:29:07;2.08;;;1.40;;
40533;SDS011;26233;51.894;10.192;2023-03-14T07:31:35;2.30;;;1.30;;
40533;SDS011;26233;51.894;10.192;2023-03-14T07:34:03;4.15;;;1.50;;
40533;SDS011;26233;51.894;10.192;2023-03-14T07:36:30;1.90;;;1.30;;
40533;SDS011;26233;51.894;10.192;2023-03-14T07:38:59;2.35;;;1.40;;
40533;SDS011;26233;51.894;10.192;2023-03-14T07:41:29;2.75;;;1.67;;
40533;SDS011;26233;51.894;10.192;2023-03-14T07:43:56;3.08;;;1.38;;
40533;SDS011;26233;51.894;10.192;2023-03-14T07:46:23;3.38;;;1.40;;
40533;SDS011;26233;51.894;10.192;2023-03-14T07:48:50;2.38;;;1.25;;
40533;SDS011;26233;51.894;10.192;2023-03-14T07:51:18;1.92;;;1.10;;
40533;SDS011;26233;51.894;10.192;2023-03-14T07:53:45;1.25;;;1.00;;
40533;SDS011;26233;51.894;10.192;2023-03-14T07:56:14;2.08;;;1.05;;
40533;SDS011;26233;51.894;10.192;2023-03-14T07:58:41;1.17;;;0.93;;
40533;SDS011;26233;51.894;10.192;2023-03-14T08:01:08;2.20;;;1.17;;
40533;SDS011;26233;51.894;10.192;2023-03-14T08:03:37;1.52;;;1.17;;
40533;SDS011;26233;51.894;10.192;2023-03-14T08:06:06;1.75;;;1.10;;
40533;SDS011;26233;51.894;10.192;2023-03-14T08:08:34;1.52;;;1.10;;
40533;SDS011;26233;51.894;10.192;2023-03-14T08:11:02;1.15;;;0.93;;
40533;SDS011;26233;51.894;10.192;2023-03-14T08:13:30;2.78;;;1.35;;
40533;SDS011;26233;51.894;10.192;2023-03-14T08:15:57;1.98;;;1.20;;
40533;SDS011;26233;51.894;10.192;2023-03-14T08:18:24;2.22;;;1.30;;
40533;SDS011;26233;51.894;10.192;2023-03-14T08:20:51;2.17;;;1.17;;
40533;SDS011;26233;51.894;10.192;2023-03-14T08:23:18;1.35;;;1.13;;
40533;SDS011;26233;51.894;10.192;2023-03-14T08:25:49;0.95;;;0.93;;
40533;SDS011;26233;51.894;10.192;2023-03-14T08:28:17;2.35;;;1.10;;
40533;SDS011;26233;51.894;10.192;2023-03-14T08:30:46;2.10;;;1.10;;
40533;SDS011;26233;51.894;10.192;2023-03-14T08:33:15;1.23;;;1.10;;
40533;SDS011;26233;51.894;10.192;2023-03-14T08:35:42;1.73;;;1.00;;
40533;SDS011;26233;51.894;10.192;2023-03-14T08:38:09;1.83;;;1.00;;
40533;SDS011;26233;51.894;10.192;2023-03-14T08:40:36;1.10;;;0.90;;
40533;SDS011;26233;51.894;10.192;2023-03-14T08:43:05;1.58;;;1.05;;
40533;SDS011;26233;51.894;10.192;2023-03-14T08:45:32;1.02;;;0.90;;
40533;SDS011;26233;51.894;10.192;2023-03-14T08:47:59;1.00;;;0.90;;
40533;SDS011;26233;51.894;10.192;2023-03-14T08:50:26;1.60;;;0.90;;
40533;SDS011;26233;51.894;10.192;2023-03-14T08:52:53;0.93;;;0.90;;
40533;SDS011;26233;51.894;10.192;2023-03-14T08:55:20;1.30;;;1.00;;
40533;SDS011;26233;51.894;10.192;2023-03-14T08:57:47;1.10;;;0.85;;
40533;SDS011;26233;51.894;10.192;2023-03-14T09:00:16;0.80;;;0.80;;
40533;SDS011;26233;51.894;10.192;2023-03-14T09:02:44;1.08;;;0.98;;
40533;SDS011;26233;51.894;10.192;2023-03-14T09:05:12;0.82;;;0.75;;
40533;SDS011;26233;51.894;10.192;2023-03-14T09:07:39;1.10;;;0.90;;
40533;SDS011;26233;51.894;10.192;2023-03-14T09:10:08;1.00;;;0.90;;
40533;SDS011;26233;51.894;10.192;2023-03-14T09:12:36;1.10;;;0.90;;
40533;SDS011;26233;51.894;10.192;2023-03-14T09:15:04;1.10;;;1.00;;
40533;SDS011;26233;51.894;10.192;2023-03-14T09:17:33;1.17;;;0.95;;
40533;SDS011;26233;51.894;10.192;2023-03-14T09:20:01;0.95;;;0.82;;
40533;SDS011;26233;51.894;10.192;2023-03-14T09:22:30;2.10;;;0.90;;
40533;SDS011;26233;51.894;10.192;2023-03-14T09:24:58;1.13;;;1.00;;
40533;SDS011;26233;51.894;10.192;2023-03-14T09:27:25;1.70;;;1.10;;
40533;SDS011;26233;51.894;10.192;2023-03-14T09:29:52;1.02;;;0.90;;
40533;SDS011;26233;51.894;10.192;2023-03-14T09:32:19;1.55;;;1.13;;
40533;SDS011;26233;51.894;10.192;2023-03-14T09:34:48;5.13;;;1.13;;
40533;SDS011;26233;51.894;10.192;2023-03-14T09:37:15;1.23;;;0.95;;
40533;SDS011;26233;51.894;10.192;2023-03-14T09:39:42;0.95;;;0.80;;
40533;SDS011;26233;51.894;10.192;2023-03-14T09:42:13;1.60;;;0.80;;
40533;SDS011;26233;51.894;10.192;2023-03-14T09:44:46;1.05;;;0.80;;
40533;SDS011;26233;51.894;10.192;2023-03-14T09:47:20;1.00;;;0.80;;
40533;SDS011;26233;51.894;10.192;2023-03-14T09:49:50;0.52;;;0.52;;
40533;SDS011;26233;51.894;10.192;2023-03-14T09:52:19;0.75;;;0.70;;
40533;SDS011;26233;51.894;10.192;2023-03-14T09:54:51;0.80;;;0.60;;
40533;SDS011;26233;51.894;10.192;2023-03-14T09:57:21;1.08;;;0.80;;
40533;SDS011;26233;51.894;10.192;2023-03-14T09:59:51;0.73;;;0.60;;
40533;SDS011;26233;51.894;10.192;2023-03-14T10:02:24;1.48;;;0.70;;
40533;SDS011;26233;51.894;10.192;2023-03-14T10:04:56;1.10;;;0.73;;
40533;SDS011;26233;51.894;10.192;2023-03-14T10:07:25;0.90;;;0.70;;
40533;SDS011;26233;51.894;10.192;2023-03-14T10:09:55;0.88;;;0.70;;
40533;SDS011;26233;51.894;10.192;2023-03-14T10:12:30;0.90;;;0.70;;
40533;SDS011;26233;51.894;10.192;2023-03-14T10:14:58;0.70;;;0.70;;
40533;SDS011;26233;51.894;10.192;2023-03-14T10:17:29;0.85;;;0.65;;
40533;SDS011;26233;51.894;10.192;2023-03-14T10:20:25;0.95;;;0.68;;
40533;SDS011;26233;51.894;10.192;2023-03-14T10:23:01;0.60;;;0.60;;
40533;SDS011;26233;51.894;10.192;2023-03-14T10:25:31;0.70;;;0.65;;
40533;SDS011;26233;51.894;10.192;2023-03-14T10:28:00;0.52;;;0.52;;
40533;SDS011;26233;51.894;10.192;2023-03-14T10:30:33;1.00;;;0.68;;
40533;SDS011;26233;51.894;10.192;2023-03-14T10:33:09;1.13;;;0.70;;
40533;SDS011;26233;51.894;10.192;2023-03-14T10:35:39;0.77;;;0.50;;
40533;SDS011;26233;51.894;10.192;2023-03-14T10:38:10;0.70;;;0.60;;
40533;SDS011;26233;51.894;10.192;2023-03-14T10:40:40;0.57;;;0.50;;
40533;SDS011;26233;51.894;10.192;2023-03-14T10:43:15;0.68;;;0.68;;
40533;SDS011;26233;51.894;10.192;2023-03-14T10:45:50;0.63;;;0.63;;
40533;SDS011;26233;51.894;10.192;2023-03-14T10:48:24;1.13;;;0.70;;
40533;SDS011;26233;51.894;10.192;2023-03-14T10:51:02;1.00;;;0.70;;
40533;SDS011;26233;51.894;10.192;2023-03-14T10:53:39;0.70;;;0.63;;
40533;SDS011;26233;51.894;10.192;2023-03-14T10:56:11;1.10;;;0.77;;
40533;SDS011;26233;51.894;10.192;2023-03-14T10:58:40;0.60;;;0.60;;
40533;SDS011;26233;51.894;10.192;2023-03-14T11:01:15;0.63;;;0.60;;
40533;SDS011;26233;51.894;10.192;2023-03-14T11:03:56;1.00;;;0.60;;
40533;SDS011;26233;51.894;10.192;2023-03-14T11:06:31;0.70;;;0.52;;
40533;SDS011;26233;51.894;10.192;2023-03-14T11:09:06;1.20;;;0.68;;
40533;SDS011;26233;51.894;10.192;2023-03-14T11:11:45;1.00;;;0.70;;
40533;SDS011;26233;51.894;10.192;2023-03-14T11:14:18;0.73;;;0.70;;
40533;SDS011;26233;51.894;10.192;2023-03-14T11:16:56;1.30;;;0.70;;
40533;SDS011;26233;51.894;10.192;2023-03-14T11:19:40;0.60;;;0.60;;
40533;SDS011;26233;51.894;10.192;2023-03-14T11:22:29;0.60;;;0.60;;
40533;SDS011;26233;51.894;10.192;2023-03-14T11:25:13;0.50;;;0.50;;
40533;SDS011;26233;51.894;10.192;2023-03-14T11:27:49;0.77;;;0.50;;
40533;SDS011;26233;51.894;10.192;2023-03-14T11:30:30;0.70;;;0.50;;
40533;SDS011;26233;51.894;10.192;2023-03-14T11:33:03;0.70;;;0.52;;
40533;SDS011;26233;51.894;10.192;2023-03-14T11:35:39;0.88;;;0.50;;
40533;SDS011;26233;51.894;10.192;2023-03-14T11:38:19;0.57;;;0.57;;
40533;SDS011;26233;51.894;10.192;2023-03-14T11:40:57;0.60;;;0.50;;
40533;SDS011;26233;51.894;10.192;2023-03-14T11:43:26;0.70;;;0.60;;
40533;SDS011;26233;51.894;10.192;2023-03-14T11:45:58;0.60;;;0.60;;
40533;SDS011;26233;51.894;10.192;2023-03-14T11:48:35;0.68;;;0.60;;
40533;SDS011;26233;51.894;10.192;2023-03-14T11:51:10;0.65;;;0.45;;
40533;SDS011;26233;51.894;10.192;2023-03-14T11:53:55;0.55;;;0.55;;
40533;SDS011;26233;51.894;10.192;2023-03-14T11:56:33;0.50;;;0.50;;
40533;SDS011;26233;51.894;10.192;2023-03-14T11:59:05;0.73;;;0.70;;
40533;SDS011;26233;51.894;10.192;2023-03-14T12:01:44;0.43;;;0.43;;
40533;SDS011;26233;51.894;10.192;2023-03-14T12:04:21;0.40;;;0.40;;
40533;SDS011;26233;51.894;10.192;2023-03-14T12:07:12;0.50;;;0.50;;
40533;SDS011;26233;51.894;10.192;2023-03-14T12:09:47;0.85;;;0.50;;
40533;SDS011;26233;51.894;10.192;2023-03-14T12:12:16;0.60;;;0.60;;
40533;SDS011;26233;51.894;10.192;2023-03-14T12:14:51;0.60;;;0.60;;
40533;SDS011;26233;51.894;10.192;2023-03-14T12:17:22;0.77;;;0.60;;
40533;SDS011;26233;51.894;10.192;2023-03-14T12:20:02;0.73;;;0.57;;
40533;SDS011;26233;51.894;10.192;2023-03-14T12:22:33;3.30;;;0.88;;
40533;SDS011;26233;51.894;10.192;2023-03-14T12:25:13;2.05;;;0.70;;
40533;SDS011;26233;51.894;10.192;2023-03-14T12:27:48;0.50;;;0.50;;
40533;SDS011;26233;51.894;10.192;2023-03-14T12:30:32;0.60;;;0.60;;
40533;SDS011;26233;51.894;10.192;2023-03-14T12:36:00;0.80;;;0.52;;
40533;SDS011;26233;51.894;10.192;2023-03-14T12:39:03;0.80;;;0.50;;
40533;SDS011;26233;51.894;10.192;2023-03-14T12:41:44;1.27;;;0.60;;
40533;SDS011;26233;51.894;10.192;2023-03-14T12:50:21;1.55;;;0.60;;
40533;SDS011;26233;51.894;10.192;2023-03-14T12:53:07;0.60;;;0.60;;
40533;SDS011;26233;51.894;10.192;2023-03-14T12:56:15;0.50;;;0.50;;
40533;SDS011;26233;51.894;10.192;2023-03-14T12:58:56;0.40;;;0.40;;
40533;SDS011;26233;51.894;10.192;2023-03-14T13:01:59;0.40;;;0.40;;
40533;SDS011;26233;51.894;10.192;2023-03-14T13:04:42;0.50;;;0.50;;
40533;SDS011;26233;51.894;10.192;2023-03-14T13:07:28;0.50;;;0.50;;
40533;SDS011;26233;51.894;10.192;2023-03-14T13:10:03;1.10;;;0.73;;
40533;SDS011;26233;51.894;10.192;2023-03-14T13:12:51;0.70;;;0.70;;
40533;SDS011;26233;51.894;10.192;2023-03-14T13:15:29;0.60;;;0.60;;
40533;SDS011;26233;51.894;10.192;2023-03-14T13:18:01;0.67;;;0.60;;
40533;SDS011;26233;51.894;10.192;2023-03-14T13:20:36;0.60;;;0.60;;
40533;SDS011;26233;51.894;10.192;2023-03-14T13:23:17;0.70;;;0.70;;
40533;SDS011;26233;51.894;10.192;2023-03-14T13:25:47;0.60;;;0.60;;
40533;SDS011;26233;51.894;10.192;2023-03-14T13:28:14;0.43;;;0.43;;
40533;SDS011;26233;51.894;10.192;2023-03-14T13:30:44;0.50;;;0.50;;
40533;SDS011;26233;51.894;10.192;2023-03-14T13:33:13;0.50;;;0.50;;
40533;SDS011;26233;51.894;10.192;2023-03-14T13:35:42;0.50;;;0.50;;
40533;SDS011;26233;51.894;10.192;2023-03-14T13:38:19;0.50;;;0.50;;
40533;SDS011;26233;51.894;10.192;2023-03-14T13:40:48;0.80;;;0.60;;
40533;SDS011;26233;51.894;10.192;2023-03-14T13:43:18;0.60;;;0.60;;
40533;SDS011;26233;51.894;10.192;2023-03-14T13:45:50;0.50;;;0.50;;
40533;SDS011;26233;51.894;10.192;2023-03-14T13:48:19;0.70;;;0.70;;
40533;SDS011;26233;51.894;10.192;2023-03-14T13:50:54;1.00;;;0.57;;
40533;SDS011;26233;51.894;10.192;2023-03-14T13:53:25;0.50;;;0.50;;
40533;SDS011;26233;51.894;10.192;2023-03-14T13:55:52;1.50;;;0.60;;
40533;SDS011;26233;51.894;10.192;2023-03-14T13:58:20;0.77;;;0.70;;
40533;SDS011;26233;51.894;10.192;2023-03-14T14:01:01;1.50;;;0.80;;
40533;SDS011;26233;51.894;10.192;2023-03-14T14:03:32;0.60;;;0.60;;
40533;SDS011;26233;51.894;10.192;2023-03-14T14:06:06;1.27;;;0.70;;
40533;SDS011;26233;51.894;10.192;2023-03-14T14:08:52;0.73;;;0.73;;
40533;SDS011;26233;51.894;10.192;2023-03-14T14:11:22;1.23;;;0.77;;
40533;SDS011;26233;51.894;10.192;2023-03-14T14:14:00;0.83;;;0.80;;
40533;SDS011;26233;51.894;10.192;2023-03-14T14:16:29;1.90;;;1.53;;
40533;SDS011;26233;51.894;10.192;2023-03-14T14:18:57;1.53;;;1.33;;
40533;SDS011;26233;51.894;10.192;2023-03-14T14:21:26;1.93;;;1.00;;
40533;SDS011;26233;51.894;10.192;2023-03-14T14:23:54;3.70;;;1.27;;
40533;SDS011;26233;51.894;10.192;2023-03-14T14:26:21;1.93;;;1.13;;
40533;SDS011;26233;51.894;10.192;2023-03-14T14:28:57;1.53;;;1.10;;
40533;SDS011;26233;51.894;10.192;2023-03-14T14:31:26;1.80;;;1.20;;
40533;SDS011;26233;51.894;10.192;2023-03-14T14:33:55;1.87;;;1.40;;
40533;SDS011;26233;51.894;10.192;2023-03-14T14:36:24;3.37;;;1.50;;
40533;SDS011;26233;51.894;10.192;2023-03-14T14:38:57;3.03;;;1.37;;
40533;SDS011;26233;51.894;10.192;2023-03-14T14:41:27;3.03;;;1.30;;
40533;SDS011;26233;51.894;10.192;2023-03-14T14:43:57;2.00;;;1.30;;
40533;SDS011;26233;51.894;10.192;2023-03-14T14:46:26;2.77;;;1.40;;
40533;SDS011;26233;51.894;10.192;2023-03-14T14:49:01;1.70;;;1.40;;
40533;SDS011;26233;51.894;10.192;2023-03-14T14:51:32;3.43;;;1.47;;
40533;SDS011;26233;51.894;10.192;2023-03-14T14:54:10;2.67;;;1.30;;
40533;SDS011;26233;51.894;10.192;2023-03-14T14:56:40;2.87;;;1.40;;
40533;SDS011;26233;51.894;10.192;2023-03-14T14:59:24;4.07;;;1.40;;
40533;SDS011;26233;51.894;10.192;2023-03-14T15:01:56;3.50;;;1.93;;